Time;durP1;ratioP1;P1;durP2;ratioP2;P2;SDS_P1;SDS_P2;PMS_P1;PMS_P2;Temp;Humidity;BMP_temperature;BMP_pressure;BME280_temperature;BME280_humidity;BME280_pressure;Samples;Min_cycle;Max_cycle;Signal;HPM_P1;HPM_P2
2022/01/08 00:01:38;;;;;;;8.60;2.10;;;3.80;99.90;;;;;;5053082;28;20253;-94
2022/01/08 00:04:10;;;;;;;14.50;2.10;;;3.80;99.90;;;;;;5049640;28;20231;-94
2022/01/08 00:06:45;;;;;;;12.77;2.20;;;3.80;99.90;;;;;;5047664;28;20205;-96
2022/01/08 00:09:16;;;;;;;12.10;2.30;;;3.80;99.90;;;;;;5052341;28;20275;-95
2022/01/08 00:11:48;;;;;;;5.73;1.60;;;3.80;99.90;;;;;;5046887;28;20232;-95
2022/01/08 00:14:22;;;;;;;11.43;2.20;;;3.80;99.90;;;;;;5052995;28;20209;-95
2022/01/08 00:16:53;;;;;;;9.73;1.80;;;3.90;99.90;;;;;;5051445;28;20189;-95
2022/01/08 00:19:24;;;;;;;16.27;2.83;;;3.90;99.90;;;;;;5050998;28;20242;-93
2022/01/08 00:21:59;;;;;;;12.33;2.17;;;3.90;99.90;;;;;;5174540;22;20243;-94
2022/01/08 00:24:33;;;;;;;10.07;2.07;;;3.90;99.90;;;;;;5072266;28;20208;-95
2022/01/08 00:27:04;;;;;;;11.33;2.17;;;3.90;99.90;;;;;;5069597;28;20212;-95
2022/01/08 00:29:36;;;;;;;7.23;1.60;;;3.90;99.90;;;;;;5067087;28;20307;-94
2022/01/08 00:32:08;;;;;;;10.50;2.20;;;3.80;99.90;;;;;;5070385;28;20193;-94
2022/01/08 00:34:39;;;;;;;12.37;2.70;;;3.80;99.90;;;;;;5057996;28;20203;-95
2022/01/08 00:37:13;;;;;;;8.77;2.10;;;3.90;99.90;;;;;;5062158;28;20218;-94
2022/01/08 00:39:44;;;;;;;11.00;1.83;;;3.80;99.90;;;;;;5057597;28;20200;-94
2022/01/08 00:42:15;;;;;;;10.23;2.23;;;3.80;99.90;;;;;;5058615;28;20205;-95
2022/01/08 00:44:46;;;;;;;7.10;1.77;;;3.90;99.90;;;;;;5068527;28;20200;-95
2022/01/08 00:47:17;;;;;;;11.63;2.00;;;3.90;99.90;;;;;;5070413;28;20224;-95
2022/01/08 00:49:48;;;;;;;8.60;1.73;;;3.80;99.90;;;;;;5070689;28;20228;-95
2022/01/08 00:52:22;;;;;;;7.47;1.80;;;3.80;99.90;;;;;;5069613;28;20232;-94
2022/01/08 00:54:53;;;;;;;11.17;1.93;;;3.90;99.90;;;;;;5069494;28;20243;-95
2022/01/08 00:57:24;;;;;;;8.30;1.57;;;3.90;99.90;;;;;;5068584;28;20204;-95
2022/01/08 00:59:56;;;;;;;11.00;2.57;;;3.90;99.90;;;;;;5073079;28;20222;-95
2022/01/08 01:02:27;;;;;;;9.97;1.93;;;3.90;99.90;;;;;;5071806;28;20266;-95
2022/01/08 01:04:59;;;;;;;5.70;1.47;;;3.90;99.90;;;;;;5075373;28;20254;-91
2022/01/08 01:07:31;;;;;;;12.57;2.10;;;3.90;99.90;;;;;;5074601;28;20209;-94
2022/01/08 01:10:03;;;;;;;8.00;1.50;;;3.90;99.90;;;;;;5078024;28;20228;-95
2022/01/08 01:12:35;;;;;;;9.10;1.20;;;3.90;99.90;;;;;;5075522;28;20219;-94
2022/01/08 01:15:11;;;;;;;9.40;1.60;;;3.90;99.90;;;;;;5055650;22;20375;-94
2022/01/08 01:17:43;;;;;;;6.37;1.13;;;3.90;99.90;;;;;;5037553;28;20210;-94
2022/01/08 01:20:16;;;;;;;5.73;1.63;;;3.90;99.90;;;;;;5121959;23;20241;-94
2022/01/08 01:22:56;;;;;;;10.33;1.90;;;4.00;99.90;;;;;;5037338;28;20257;-96
2022/01/08 01:25:34;;;;;;;8.57;2.30;;;3.90;99.90;;;;;;5032909;28;20237;-94
2022/01/08 01:28:17;;;;;;;7.27;1.40;;;3.90;99.90;;;;;;5036826;28;20220;-94
2022/01/08 01:41:08;;;;;;;9.97;1.97;;;3.80;99.90;;;;;;5034815;28;20309;-96
2022/01/08 01:50:09;;;;;;;9.73;2.33;;;3.80;99.90;;;;;;5464629;22;20316;-94
2022/01/08 01:52:40;;;;;;;10.00;1.60;;;3.80;99.90;;;;;;5075497;28;20203;-93
2022/01/08 01:55:14;;;;;;;7.97;1.60;;;3.80;99.90;;;;;;5075069;28;20201;-93
2022/01/08 01:57:48;;;;;;;7.67;1.50;;;3.90;99.90;;;;;;5075047;28;20215;-93
2022/01/08 02:00:20;;;;;;;7.13;1.57;;;3.80;99.90;;;;;;5076480;28;20212;-95
2022/01/08 02:02:51;;;;;;;8.57;1.97;;;3.80;99.90;;;;;;5075951;28;20295;-96
2022/01/08 02:05:24;;;;;;;13.77;2.70;;;3.80;99.90;;;;;;5076539;28;20196;-94
2022/01/08 02:07:58;;;;;;;10.93;1.70;;;3.80;99.90;;;;;;5073357;28;20200;-95
2022/01/08 02:10:36;;;;;;;10.97;1.40;;;3.80;99.90;;;;;;5074290;28;20235;-96
2022/01/08 02:13:09;;;;;;;13.93;2.60;;;3.80;99.90;;;;;;5076442;28;20321;-95
2022/01/08 02:21:07;;;;;;;6.27;1.47;;;3.80;99.90;;;;;;5217896;22;20243;-95
2022/01/08 02:23:39;;;;;;;8.37;1.80;;;3.90;99.90;;;;;;5077722;28;20192;-95
2022/01/08 02:26:12;;;;;;;6.67;1.80;;;3.90;99.90;;;;;;5075604;28;20212;-95
2022/01/08 02:28:44;;;;;;;5.90;1.30;;;3.90;99.90;;;;;;5075490;28;20208;-95
2022/01/08 02:31:25;;;;;;;5.87;1.50;;;3.90;99.90;;;;;;5076231;28;20251;-95
2022/01/08 02:33:57;;;;;;;8.00;1.60;;;3.90;99.90;;;;;;5074465;28;20211;-94
2022/01/08 02:36:31;;;;;;;6.93;1.60;;;3.90;99.90;;;;;;5073007;28;20207;-96
2022/01/08 02:39:03;;;;;;;5.67;1.93;;;3.90;99.90;;;;;;5067733;28;20211;-96
2022/01/08 02:41:34;;;;;;;7.40;1.63;;;3.90;99.90;;;;;;5067575;28;20230;-95
2022/01/08 02:44:09;;;;;;;9.27;2.00;;;3.90;99.90;;;;;;5069224;28;20200;-95
2022/01/08 02:46:41;;;;;;;8.03;1.70;;;3.90;99.90;;;;;;5068825;28;20183;-96
2022/01/08 02:49:12;;;;;;;11.03;1.97;;;3.90;99.90;;;;;;5072035;28;20212;-93
2022/01/08 02:51:45;;;;;;;5.43;1.60;;;3.90;99.90;;;;;;5072503;28;20234;-94
2022/01/08 02:54:16;;;;;;;3.80;1.53;;;3.90;99.90;;;;;;5072206;28;20218;-94
2022/01/08 02:56:51;;;;;;;6.67;1.40;;;3.90;99.90;;;;;;5068174;28;20200;-94
2022/01/08 02:59:22;;;;;;;6.37;2.00;;;3.90;99.90;;;;;;5072379;28;20242;-94
2022/01/08 03:01:55;;;;;;;9.87;2.33;;;3.90;99.90;;;;;;5071660;28;20206;-95
2022/01/08 03:04:27;;;;;;;6.10;2.13;;;3.90;99.90;;;;;;5066494;28;20264;-96
2022/01/08 03:07:04;;;;;;;4.70;1.47;;;3.80;99.90;;;;;;5068220;28;20230;-95
2022/01/08 03:09:40;;;;;;;7.77;1.47;;;3.80;99.90;;;;;;5069499;28;20204;-94
2022/01/08 03:12:13;;;;;;;6.53;1.57;;;3.80;99.90;;;;;;5068874;28;20230;-96
2022/01/08 03:14:45;;;;;;;5.43;1.60;;;3.80;99.90;;;;;;5067706;28;20212;-95
2022/01/08 03:17:18;;;;;;;10.63;1.70;;;3.80;99.90;;;;;;5066783;28;20204;-94
2022/01/08 03:19:53;;;;;;;4.97;1.07;;;3.80;99.90;;;;;;5071734;28;20225;-95
2022/01/08 03:25:17;;;;;;;5.23;1.43;;;3.70;99.90;;;;;;5277923;22;20270;-96
2022/01/08 03:27:48;;;;;;;5.13;1.17;;;3.70;99.90;;;;;;5076939;28;20204;-94
2022/01/08 03:30:19;;;;;;;6.30;1.10;;;3.80;99.90;;;;;;5075333;28;20242;-95
2022/01/08 03:32:50;;;;;;;6.20;1.20;;;3.70;99.90;;;;;;5075598;28;20203;-96
2022/01/08 03:35:22;;;;;;;4.30;1.40;;;3.70;99.90;;;;;;5211722;22;20244;-96
2022/01/08 03:38:06;;;;;;;6.30;1.50;;;3.80;99.90;;;;;;5073214;28;20231;-95
2022/01/08 03:40:37;;;;;;;5.47;1.13;;;3.80;99.90;;;;;;5075635;28;20211;-96
2022/01/08 03:43:09;;;;;;;3.63;1.00;;;3.70;99.90;;;;;;5071910;28;20196;-96
2022/01/08 03:45:41;;;;;;;5.53;1.47;;;3.70;99.90;;;;;;5073564;28;20234;-95
2022/01/08 03:48:27;;;;;;;4.30;1.20;;;3.70;99.90;;;;;;5074348;28;20216;-95
2022/01/08 03:50:59;;;;;;;6.33;1.10;;;3.70;99.90;;;;;;5075495;28;20219;-94
2022/01/08 03:53:33;;;;;;;5.73;1.00;;;3.70;99.90;;;;;;5080801;28;20192;-95
2022/01/08 03:56:06;;;;;;;6.97;1.23;;;3.70;99.90;;;;;;5618994;22;20280;-94
2022/01/08 03:58:39;;;;;;;3.20;1.13;;;3.70;99.90;;;;;;5121249;28;20254;-91
2022/01/08 04:01:11;;;;;;;2.20;0.77;;;3.60;99.90;;;;;;5119961;28;20210;-94
2022/01/08 04:03:43;;;;;;;4.33;0.93;;;3.60;99.90;;;;;;5120855;28;20247;-96
2022/01/08 04:06:15;;;;;;;5.53;1.53;;;3.60;99.90;;;;;;5120786;28;20191;-96
2022/01/08 04:08:56;;;;;;;4.80;1.13;;;3.60;99.90;;;;;;5120114;28;20187;-96
2022/01/08 04:11:28;;;;;;;7.47;1.10;;;3.60;99.90;;;;;;5117302;28;20230;-93
2022/01/08 04:13:59;;;;;;;6.23;2.53;;;3.50;99.90;;;;;;5118798;28;20256;-94
2022/01/08 04:16:33;;;;;;;5.80;2.70;;;3.60;99.90;;;;;;5114627;28;20207;-96
2022/01/08 04:19:05;;;;;;;8.20;2.13;;;3.50;99.90;;;;;;5115532;28;20209;-95
2022/01/08 04:24:26;;;;;;;4.17;0.90;;;3.50;99.90;;;;;;5115206;28;20271;-95
2022/01/08 04:26:57;;;;;;;5.97;1.20;;;3.50;99.90;;;;;;5114455;28;20232;-95
2022/01/08 04:29:29;;;;;;;5.37;1.10;;;3.50;99.90;;;;;;5113002;28;20222;-96
2022/01/08 04:32:01;;;;;;;2.93;1.00;;;3.50;99.90;;;;;;5112580;28;20248;-95
2022/01/08 04:34:33;;;;;;;4.37;0.90;;;3.50;99.90;;;;;;5111563;28;20229;-95
2022/01/08 04:37:04;;;;;;;6.67;1.03;;;3.50;99.90;;;;;;5112281;28;20640;-95
2022/01/08 04:39:39;;;;;;;4.50;1.20;;;3.50;99.90;;;;;;5114916;28;20195;-93
2022/01/08 04:42:11;;;;;;;1.43;0.87;;;3.40;99.90;;;;;;5114460;28;20202;-95
2022/01/08 04:44:43;;;;;;;6.40;1.30;;;3.40;99.90;;;;;;5112627;28;20245;-95
2022/01/08 04:47:14;;;;;;;6.90;1.03;;;3.40;99.90;;;;;;5113077;28;20214;-96
2022/01/08 04:49:47;;;;;;;6.57;1.40;;;3.30;99.90;;;;;;5112183;28;20253;-95
2022/01/08 04:52:20;;;;;;;8.63;1.33;;;3.30;99.90;;;;;;5112592;28;20222;-95
2022/01/08 04:54:53;;;;;;;5.80;1.23;;;3.30;99.90;;;;;;5109390;28;20253;-95
2022/01/08 04:57:24;;;;;;;4.73;1.20;;;3.30;99.90;;;;;;5110948;28;20241;-95
2022/01/08 04:59:57;;;;;;;6.17;1.80;;;3.40;99.90;;;;;;5111996;28;20240;-96
2022/01/08 05:02:27;;;;;;;2.80;1.00;;;3.40;99.90;;;;;;5112394;28;20223;-92
2022/01/08 05:04:59;;;;;;;9.03;1.13;;;3.40;99.90;;;;;;5111997;28;20236;-94
2022/01/08 05:07:31;;;;;;;3.73;0.97;;;3.40;99.90;;;;;;5113181;28;20209;-93
2022/01/08 05:10:04;;;;;;;3.57;1.00;;;3.40;99.90;;;;;;5114506;27;20199;-94
2022/01/08 05:12:35;;;;;;;4.03;1.00;;;3.40;99.90;;;;;;5113793;28;20708;-96
2022/01/08 05:15:08;;;;;;;2.87;1.77;;;3.40;99.90;;;;;;5113656;28;20221;-95
2022/01/08 05:17:54;;;;;;;4.40;1.37;;;3.40;99.90;;;;;;5117116;28;20220;-95
2022/01/08 05:20:31;;;;;;;2.97;0.90;;;3.40;99.90;;;;;;5106082;28;20211;-96
2022/01/08 05:23:05;;;;;;;4.17;1.00;;;3.40;99.90;;;;;;5106388;28;20238;-96
2022/01/08 05:25:40;;;;;;;3.70;0.90;;;3.40;99.90;;;;;;5105746;28;20207;-96
2022/01/08 05:28:15;;;;;;;1.97;0.80;;;3.30;99.90;;;;;;5113602;28;20193;-96
2022/01/08 05:30:47;;;;;;;2.67;0.73;;;3.30;99.90;;;;;;5106749;28;20210;-95
2022/01/08 05:33:20;;;;;;;1.43;0.77;;;3.40;99.90;;;;;;5103061;28;20245;-94
2022/01/08 05:35:52;;;;;;;3.07;0.83;;;3.40;99.90;;;;;;5103303;28;20325;-95
2022/01/08 05:38:24;;;;;;;4.60;0.90;;;3.40;99.90;;;;;;5085862;28;20234;-96
2022/01/08 05:40:58;;;;;;;5.53;1.40;;;3.40;99.90;;;;;;5078456;28;20242;-95
2022/01/08 05:43:30;;;;;;;2.83;0.80;;;3.40;99.90;;;;;;5088990;28;20203;-96
2022/01/08 05:46:01;;;;;;;7.27;0.83;;;3.40;99.90;;;;;;5073531;28;20237;-94
2022/01/08 05:48:36;;;;;;;3.83;1.10;;;3.50;99.90;;;;;;5092896;28;20198;-95
2022/01/08 05:51:07;;;;;;;3.57;0.70;;;3.50;99.90;;;;;;5092172;28;20195;-95
2022/01/08 05:53:41;;;;;;;3.67;1.00;;;3.50;99.90;;;;;;5092546;28;20200;-94
2022/01/08 05:56:16;;;;;;;2.67;0.70;;;3.50;99.90;;;;;;5084866;28;20630;-96
2022/01/08 05:58:48;;;;;;;4.67;0.80;;;3.50;99.90;;;;;;5078371;28;20212;-96
2022/01/08 06:01:19;;;;;;;4.20;1.20;;;3.50;99.90;;;;;;5078246;28;20655;-96
2022/01/08 06:03:51;;;;;;;4.07;1.03;;;3.60;99.90;;;;;;5079814;28;20211;-95
2022/01/08 06:06:22;;;;;;;4.77;0.80;;;3.60;99.90;;;;;;5078060;28;20203;-96
2022/01/08 06:08:53;;;;;;;3.63;1.00;;;3.60;99.90;;;;;;5078078;28;20200;-95
2022/01/08 06:11:27;;;;;;;2.07;0.87;;;3.70;99.90;;;;;;5077917;28;20616;-93
2022/01/08 06:13:58;;;;;;;6.07;1.37;;;3.60;99.90;;;;;;5080368;28;20210;-94
2022/01/08 06:16:32;;;;;;;5.00;1.17;;;3.60;99.90;;;;;;5083949;28;20235;-94
2022/01/08 06:19:04;;;;;;;2.37;0.67;;;3.60;99.90;;;;;;5088197;28;20230;-94
2022/01/08 06:21:36;;;;;;;1.93;0.90;;;3.70;99.90;;;;;;5086203;28;20206;-93
2022/01/08 06:24:08;;;;;;;7.73;0.97;;;3.60;99.90;;;;;;5094987;28;20204;-94
2022/01/08 06:26:41;;;;;;;3.87;0.80;;;3.70;99.90;;;;;;5096406;28;20196;-94
2022/01/08 06:29:13;;;;;;;3.03;1.00;;;3.70;99.90;;;;;;5095663;28;20202;-93
2022/01/08 06:31:45;;;;;;;3.87;1.20;;;3.70;99.90;;;;;;5087326;28;20249;-95
2022/01/08 06:34:16;;;;;;;4.37;0.87;;;3.70;99.90;;;;;;5086635;28;20204;-93
2022/01/08 06:36:48;;;;;;;5.23;0.70;;;3.70;99.90;;;;;;5103254;28;20191;-93
2022/01/08 06:39:20;;;;;;;5.20;0.90;;;3.70;99.90;;;;;;5101846;28;20236;-94
2022/01/08 06:41:53;;;;;;;5.00;0.93;;;3.70;99.90;;;;;;5103618;27;20203;-94
2022/01/08 06:44:24;;;;;;;2.30;0.93;;;3.70;99.90;;;;;;5099591;28;20202;-94
2022/01/08 06:46:56;;;;;;;3.23;1.00;;;3.70;99.90;;;;;;5099972;28;20233;-96
2022/01/08 06:49:26;;;;;;;3.53;0.83;;;3.70;99.90;;;;;;5098681;28;20253;-96
2022/01/08 06:51:57;;;;;;;6.40;0.80;;;3.60;99.90;;;;;;5099512;28;20237;-93
2022/01/08 06:54:28;;;;;;;5.10;1.00;;;3.60;99.90;;;;;;5098781;28;20206;-94
2022/01/08 06:57:01;;;;;;;5.63;0.87;;;3.60;99.90;;;;;;5100180;28;20206;-94
2022/01/08 06:59:32;;;;;;;3.33;0.70;;;3.60;99.90;;;;;;5098674;28;20214;-93
2022/01/08 07:02:04;;;;;;;4.13;0.80;;;3.50;99.90;;;;;;5105260;28;20203;-93
2022/01/08 07:04:35;;;;;;;2.17;0.83;;;3.60;99.90;;;;;;5103805;28;20198;-92
2022/01/08 07:07:06;;;;;;;3.60;0.90;;;3.50;99.90;;;;;;5101502;28;20207;-93
2022/01/08 07:09:37;;;;;;;3.60;0.80;;;3.60;99.90;;;;;;5099601;28;20199;-94
2022/01/08 07:12:13;;;;;;;3.97;1.03;;;3.50;99.90;;;;;;5099875;28;20270;-96
2022/01/08 07:14:46;;;;;;;2.63;0.70;;;3.50;99.90;;;;;;5097874;28;20213;-94
2022/01/08 07:17:18;;;;;;;6.83;1.00;;;3.50;99.90;;;;;;5122443;22;20252;-94
2022/01/08 07:19:49;;;;;;;3.73;0.77;;;3.40;99.90;;;;;;5056912;28;20253;-94
2022/01/08 07:22:20;;;;;;;3.70;0.73;;;3.40;99.90;;;;;;5057453;28;20204;-95
2022/01/08 07:24:51;;;;;;;4.63;0.90;;;3.30;99.90;;;;;;5057374;28;20302;-96
2022/01/08 07:27:24;;;;;;;3.93;0.80;;;3.30;99.90;;;;;;5059009;28;20215;-95
2022/01/08 07:29:54;;;;;;;4.90;1.00;;;3.30;99.90;;;;;;5063147;28;20200;-94
2022/01/08 07:32:26;;;;;;;6.30;1.00;;;3.20;99.90;;;;;;5076068;28;20239;-95
2022/01/08 07:34:58;;;;;;;3.07;0.73;;;3.20;99.90;;;;;;5075781;28;20200;-95
2022/01/08 07:37:28;;;;;;;3.50;0.87;;;3.20;99.90;;;;;;5075320;28;20188;-95
2022/01/08 07:39:59;;;;;;;2.80;0.70;;;3.20;99.90;;;;;;5076028;28;20203;-95
2022/01/08 07:42:35;;;;;;;5.80;1.00;;;3.20;99.90;;;;;;5075330;28;20184;-93
2022/01/08 07:45:07;;;;;;;3.40;0.90;;;3.20;99.90;;;;;;5074236;28;20215;-94
2022/01/08 07:47:39;;;;;;;1.40;0.70;;;3.20;99.90;;;;;;5074666;28;20216;-94
2022/01/08 07:50:11;;;;;;;2.70;0.73;;;3.20;99.90;;;;;;5066604;28;20627;-94
2022/01/08 07:52:42;;;;;;;4.23;1.17;;;3.20;99.90;;;;;;5058568;28;20228;-94
2022/01/08 07:55:14;;;;;;;5.07;0.93;;;3.10;99.90;;;;;;5059779;28;20235;-94
2022/01/08 07:57:48;;;;;;;2.33;1.00;;;3.00;99.90;;;;;;5060560;28;20220;-94
2022/01/08 08:00:18;;;;;;;4.40;0.70;;;2.90;99.90;;;;;;5058664;28;20238;-94
2022/01/08 08:02:50;;;;;;;2.87;0.70;;;2.80;99.90;;;;;;5058708;28;20219;-94
2022/01/08 08:05:21;;;;;;;3.57;0.87;;;2.80;99.90;;;;;;5062835;28;20268;-93
2022/01/08 08:07:52;;;;;;;3.03;0.70;;;2.70;99.90;;;;;;5061816;28;20338;-94
2022/01/08 08:10:25;;;;;;;4.50;0.80;;;2.60;99.90;;;;;;5062872;28;20215;-94
2022/01/08 08:12:58;;;;;;;5.10;1.10;;;2.60;99.90;;;;;;5063397;28;20296;-94
2022/01/08 08:15:29;;;;;;;5.80;1.03;;;2.60;99.90;;;;;;5062269;28;20207;-95
2022/01/08 08:18:00;;;;;;;3.00;0.73;;;2.60;99.90;;;;;;5061010;28;20578;-95
2022/01/08 08:20:31;;;;;;;4.30;1.00;;;2.70;99.90;;;;;;5061231;28;20733;-94
2022/01/08 08:23:03;;;;;;;3.23;0.90;;;2.70;99.90;;;;;;5060664;28;20224;-94
2022/01/08 08:25:34;;;;;;;4.47;0.93;;;2.80;99.90;;;;;;5061117;28;20262;-94
2022/01/08 08:28:08;;;;;;;2.90;0.70;;;2.80;99.90;;;;;;5061360;28;20208;-94
2022/01/08 08:30:39;;;;;;;2.87;1.00;;;2.90;99.90;;;;;;5060787;28;20715;-94
2022/01/08 08:33:10;;;;;;;3.37;1.00;;;2.90;99.90;;;;;;5070801;28;20228;-94
2022/01/08 08:35:43;;;;;;;3.23;1.20;;;2.90;99.90;;;;;;5074338;28;20204;-94
2022/01/08 08:38:14;;;;;;;3.47;0.70;;;2.90;99.90;;;;;;5075237;28;20196;-94
2022/01/08 08:40:45;;;;;;;2.00;1.00;;;2.90;99.90;;;;;;5072170;28;20212;-94
2022/01/08 08:43:19;;;;;;;5.73;0.70;;;2.90;99.90;;;;;;5063632;28;20674;-95
2022/01/08 08:45:50;;;;;;;3.23;0.90;;;3.00;99.90;;;;;;5067301;28;20208;-95
2022/01/08 08:48:22;;;;;;;4.57;1.10;;;3.00;99.90;;;;;;5074864;28;20204;-93
2022/01/08 08:50:54;;;;;;;3.53;1.20;;;3.00;99.90;;;;;;5063701;28;20277;-94
2022/01/08 08:53:26;;;;;;;4.73;1.10;;;3.10;99.90;;;;;;5063472;28;20240;-94
2022/01/08 08:55:58;;;;;;;2.53;0.83;;;3.10;99.90;;;;;;5061916;28;20290;-93
2022/01/08 08:58:30;;;;;;;3.17;1.00;;;3.10;99.90;;;;;;5063694;28;20243;-93
2022/01/08 09:01:01;;;;;;;2.73;0.70;;;3.20;99.90;;;;;;5065840;28;20227;-93
2022/01/08 09:03:33;;;;;;;2.73;1.13;;;3.20;99.90;;;;;;5067464;28;20199;-93
2022/01/08 09:06:04;;;;;;;3.73;1.07;;;3.20;99.90;;;;;;5077756;28;20206;-94
2022/01/08 09:08:35;;;;;;;3.37;1.13;;;3.20;99.90;;;;;;5068474;28;20204;-93
2022/01/08 09:11:06;;;;;;;3.87;0.83;;;3.20;99.90;;;;;;5058363;28;20208;-93
2022/01/08 09:13:39;;;;;;;2.13;0.77;;;3.10;99.90;;;;;;5047078;28;20260;-94
2022/01/08 09:16:12;;;;;;;3.50;1.00;;;3.10;99.90;;;;;;5040310;28;20797;-93
2022/01/08 09:18:43;;;;;;;3.60;1.00;;;3.10;99.90;;;;;;5046255;28;20267;-94
2022/01/08 09:21:15;;;;;;;2.73;1.07;;;3.00;99.90;;;;;;5042350;28;20217;-94
2022/01/08 09:23:46;;;;;;;2.83;0.90;;;3.00;99.90;;;;;;5049444;28;20219;-95
2022/01/08 09:26:17;;;;;;;2.93;1.33;;;3.00;99.90;;;;;;5039047;28;20233;-93
2022/01/08 09:28:50;;;;;;;4.67;1.13;;;3.00;99.90;;;;;;5046197;28;20268;-91
2022/01/08 09:31:21;;;;;;;3.50;1.00;;;3.00;99.90;;;;;;5040962;28;20208;-93
2022/01/08 09:33:53;;;;;;;3.30;1.00;;;3.00;99.90;;;;;;5040293;28;20310;-94
2022/01/08 09:36:24;;;;;;;1.40;0.90;;;3.00;99.90;;;;;;5038072;28;20229;-94
2022/01/08 09:38:55;;;;;;;3.43;1.00;;;3.00;99.90;;;;;;5038878;28;20232;-94
2022/01/08 09:41:26;;;;;;;2.90;0.90;;;3.00;99.90;;;;;;5038641;28;20239;-94
2022/01/08 09:44:00;;;;;;;2.87;1.03;;;3.00;99.90;;;;;;5038193;28;20530;-94
2022/01/08 09:46:31;;;;;;;4.00;1.20;;;2.90;99.90;;;;;;5037735;28;20209;-94
2022/01/08 09:49:02;;;;;;;5.17;1.00;;;3.00;99.90;;;;;;5039990;28;20205;-94
2022/01/08 09:51:33;;;;;;;5.43;1.30;;;3.00;99.90;;;;;;5041240;28;20221;-93
2022/01/08 09:54:05;;;;;;;5.50;1.40;;;2.90;99.90;;;;;;5046691;28;20232;-93
2022/01/08 09:56:36;;;;;;;3.97;1.13;;;2.90;99.90;;;;;;5044019;28;20201;-95
2022/01/08 09:59:08;;;;;;;4.57;1.37;;;2.90;99.90;;;;;;5038643;28;20212;-94
2022/01/08 10:01:40;;;;;;;1.30;1.00;;;2.90;99.90;;;;;;5039986;28;20266;-94
2022/01/08 10:04:11;;;;;;;2.97;1.10;;;2.80;99.90;;;;;;5038232;28;20646;-94
2022/01/08 10:06:42;;;;;;;4.93;1.17;;;2.70;99.90;;;;;;5037587;28;20304;-94
2022/01/08 10:09:13;;;;;;;3.83;1.50;;;2.70;99.90;;;;;;5042260;28;20295;-92
2022/01/08 10:11:51;;;;;;;4.97;1.20;;;2.60;99.90;;;;;;5038624;28;20237;-94
2022/01/08 10:17:13;;;;;;;5.67;1.50;;;2.50;99.90;;;;;;5037807;28;20264;-95
2022/01/08 10:17:45;;;;;;;3.50;1.50;;;2.50;99.90;;;;;;5039042;28;20228;-95
2022/01/08 10:20:30;;;;;;;5.03;1.57;;;2.50;99.90;;;;;;5041056;28;20205;-96
2022/01/08 10:23:19;;;;;;;6.07;3.00;;;2.40;99.90;;;;;;5037534;28;20696;-96
2022/01/08 10:26:01;;;;;;;6.33;1.70;;;2.50;99.90;;;;;;5037296;28;20205;-95
2022/01/08 10:28:37;;;;;;;3.60;1.10;;;2.50;99.90;;;;;;5037111;28;20336;-95
2022/01/08 10:31:25;;;;;;;3.50;1.30;;;2.50;99.90;;;;;;5038362;28;20295;-93
2022/01/08 10:34:08;;;;;;;6.50;1.30;;;2.50;99.90;;;;;;5043444;28;20233;-93
2022/01/08 10:36:40;;;;;;;3.20;1.20;;;2.50;99.90;;;;;;5051827;28;20204;-93
2022/01/08 10:39:13;;;;;;;6.07;1.30;;;2.50;99.90;;;;;;5045536;28;20244;-94
2022/01/08 10:41:46;;;;;;;4.13;1.10;;;2.50;99.90;;;;;;5040824;28;20293;-93
2022/01/08 10:44:19;;;;;;;3.37;1.27;;;2.60;99.90;;;;;;5037086;28;20639;-94
2022/01/08 10:47:01;;;;;;;6.97;1.50;;;2.60;99.90;;;;;;5037223;28;20221;-94
2022/01/08 10:49:34;;;;;;;3.23;1.20;;;2.70;99.90;;;;;;5038064;28;20259;-93
2022/01/08 10:52:07;;;;;;;4.37;1.50;;;2.70;99.90;;;;;;5037610;28;20211;-94
2022/01/08 10:54:39;;;;;;;3.70;1.40;;;2.50;99.90;;;;;;5038668;28;20256;-94
2022/01/08 10:57:14;;;;;;;5.40;1.60;;;2.50;99.90;;;;;;5053093;28;20204;-94
2022/01/08 10:59:46;;;;;;;5.63;1.40;;;2.50;99.90;;;;;;5055197;28;20193;-95
2022/01/08 11:02:19;;;;;;;3.60;1.43;;;2.50;99.90;;;;;;5049748;28;20205;-95
2022/01/08 11:04:53;;;;;;;2.60;1.20;;;2.50;99.90;;;;;;5037286;28;20248;-94
2022/01/08 11:07:36;;;;;;;3.57;1.20;;;2.50;99.90;;;;;;5057358;28;20705;-94
2022/01/08 11:10:15;;;;;;;4.07;1.30;;;2.50;99.90;;;;;;5055971;28;20234;-93
2022/01/08 11:12:47;;;;;;;4.10;1.30;;;2.50;99.90;;;;;;5056013;28;20571;-94
2022/01/08 11:15:48;;;;;;;6.40;1.63;;;2.40;99.90;;;;;;5055267;28;20231;-95
2022/01/08 11:18:22;;;;;;;7.10;1.50;;;2.50;99.90;;;;;;5054521;28;20256;-94
2022/01/08 11:20:58;;;;;;;6.40;1.43;;;2.50;99.90;;;;;;5058637;28;20208;-92
2022/01/08 11:23:34;;;;;;;5.90;1.33;;;2.50;99.90;;;;;;5062353;28;20231;-94
2022/01/08 11:26:06;;;;;;;3.73;1.47;;;2.50;99.90;;;;;;5055677;28;20661;-95
2022/01/08 11:28:40;;;;;;;2.60;1.30;;;2.60;99.90;;;;;;5054820;28;20239;-95
2022/01/08 11:31:17;;;;;;;5.87;1.50;;;2.60;99.90;;;;;;5056030;28;20567;-95
2022/01/08 11:33:55;;;;;;;3.37;1.23;;;2.70;99.90;;;;;;5055623;28;20239;-94
2022/01/08 11:36:27;;;;;;;3.83;1.23;;;2.70;99.90;;;;;;5057352;28;20211;-94
2022/01/08 11:38:59;;;;;;;5.87;1.60;;;2.70;99.90;;;;;;5037955;28;20675;-94
2022/01/08 11:41:31;;;;;;;3.67;1.13;;;2.70;99.90;;;;;;5038337;28;20224;-94
2022/01/08 11:44:04;;;;;;;4.67;1.57;;;2.60;99.90;;;;;;5038985;28;20678;-94
2022/01/08 11:46:37;;;;;;;4.70;1.10;;;2.60;99.90;;;;;;5038843;28;20201;-94
2022/01/08 11:49:23;;;;;;;6.47;1.30;;;2.50;99.90;;;;;;5040172;28;20236;-94
2022/01/08 11:52:16;;;;;;;3.90;1.30;;;2.40;99.90;;;;;;5044191;28;20205;-94
2022/01/08 11:54:48;;;;;;;3.53;1.20;;;2.30;99.90;;;;;;5039747;28;20237;-93
2022/01/08 11:57:22;;;;;;;6.67;1.47;;;2.30;99.90;;;;;;5038893;28;20679;-94
2022/01/08 11:59:57;;;;;;;4.37;1.17;;;2.20;99.90;;;;;;5039503;28;20292;-95
2022/01/08 12:02:41;;;;;;;3.40;1.17;;;2.20;99.90;;;;;;5039409;28;20295;-96
2022/01/08 12:05:15;;;;;;;3.67;1.30;;;2.10;99.90;;;;;;5039571;28;20236;-95
2022/01/08 12:07:49;;;;;;;6.07;1.40;;;2.10;99.90;;;;;;5048949;28;20456;-95
2022/01/08 12:10:25;;;;;;;3.50;1.37;;;2.10;99.90;;;;;;5058865;28;20226;-95
2022/01/08 12:13:00;;;;;;;7.57;1.40;;;2.10;99.90;;;;;;5059334;28;20234;-94
2022/01/08 12:15:51;;;;;;;3.83;1.03;;;2.10;99.90;;;;;;5059076;28;20243;-94
2022/01/08 12:18:27;;;;;;;4.60;1.47;;;2.00;99.90;;;;;;5056927;28;20287;-94
2022/01/08 12:21:00;;;;;;;8.30;1.70;;;2.00;99.90;;;;;;5058766;28;20239;-93
2022/01/08 12:23:34;;;;;;;6.53;1.70;;;2.00;99.90;;;;;;5059171;28;20617;-94
2022/01/08 12:26:09;;;;;;;8.57;1.63;;;2.00;99.90;;;;;;5058821;28;20231;-94
2022/01/08 12:28:46;;;;;;;5.17;1.30;;;2.00;99.90;;;;;;5057833;28;20246;-95
2022/01/08 12:31:29;;;;;;;6.10;1.20;;;2.00;99.90;;;;;;5058685;28;20632;-95
2022/01/08 12:34:44;;;;;;;3.63;1.10;;;2.00;99.90;;;;;;5058734;28;20216;-95
2022/01/08 12:37:17;;;;;;;10.10;1.60;;;2.00;99.90;;;;;;5058354;28;20326;-95
2022/01/08 12:39:57;;;;;;;3.57;1.10;;;1.90;99.90;;;;;;5061019;28;20220;-95
2022/01/08 12:42:53;;;;;;;5.77;1.63;;;2.00;99.90;;;;;;5061725;28;20234;-95
2022/01/08 12:45:35;;;;;;;7.33;1.77;;;2.10;99.90;;;;;;5060963;28;20220;-93
2022/01/08 12:48:11;;;;;;;3.90;0.90;;;2.30;99.90;;;;;;5060211;28;20235;-95
2022/01/08 12:50:53;;;;;;;4.60;1.50;;;2.40;99.90;;;;;;5060284;28;20203;-93
2022/01/08 12:53:30;;;;;;;3.83;1.30;;;2.50;99.90;;;;;;5060947;28;20212;-94
2022/01/08 12:56:15;;;;;;;3.80;1.00;;;2.50;99.90;;;;;;5059026;28;20270;-95
2022/01/08 12:58:52;;;;;;;4.73;1.40;;;2.50;99.90;;;;;;5060179;28;20291;-94
2022/01/08 13:01:30;;;;;;;6.23;1.30;;;2.60;99.90;;;;;;5058200;28;20215;-95
2022/01/08 13:04:01;;;;;;;8.73;1.30;;;2.60;99.90;;;;;;5058627;28;20228;-93
2022/01/08 13:06:36;;;;;;;2.33;0.80;;;2.70;99.90;;;;;;5057772;28;20282;-95
2022/01/08 13:09:11;;;;;;;4.07;0.93;;;2.70;99.90;;;;;;5059274;28;20244;-96
2022/01/08 13:11:44;;;;;;;8.90;1.20;;;2.70;99.90;;;;;;5058374;28;20295;-95
2022/01/08 13:14:18;;;;;;;4.37;1.17;;;2.70;99.90;;;;;;5064230;28;20208;-92
2022/01/08 13:16:50;;;;;;;4.50;1.27;;;2.70;99.90;;;;;;5077762;28;20224;-95
2022/01/08 13:19:24;;;;;;;4.67;1.20;;;2.70;99.90;;;;;;5076985;28;20207;-95
2022/01/08 13:21:56;;;;;;;3.43;0.87;;;2.80;99.90;;;;;;5064425;28;20226;-95
2022/01/08 13:24:32;;;;;;;4.87;1.60;;;2.80;99.90;;;;;;5060577;28;20217;-94
2022/01/08 13:27:06;;;;;;;5.53;1.23;;;2.80;99.90;;;;;;5060870;28;20215;-95
2022/01/08 13:29:39;;;;;;;4.90;1.30;;;2.80;99.90;;;;;;5058361;28;20214;-94
2022/01/08 13:32:12;;;;;;;7.50;1.30;;;2.90;99.90;;;;;;5058007;28;20279;-95
2022/01/08 13:34:47;;;;;;;3.57;1.13;;;2.90;99.90;;;;;;5059445;28;20207;-94
2022/01/08 13:37:31;;;;;;;6.97;1.40;;;2.90;99.90;;;;;;5057423;28;20232;-94
2022/01/08 13:40:07;;;;;;;3.03;0.80;;;2.90;99.90;;;;;;5058882;28;20219;-94
2022/01/08 13:42:40;;;;;;;3.10;1.43;;;2.90;99.90;;;;;;5058492;28;20211;-93
2022/01/08 13:45:13;;;;;;;3.50;0.97;;;2.90;99.90;;;;;;5059275;28;20247;-94
2022/01/08 13:47:47;;;;;;;3.07;0.87;;;3.00;99.90;;;;;;5055632;28;20549;-95
2022/01/08 13:50:22;;;;;;;4.33;1.13;;;3.00;99.90;;;;;;5057840;28;20250;-96
2022/01/08 13:52:57;;;;;;;7.17;0.90;;;3.00;99.90;;;;;;5057741;28;20246;-96
2022/01/08 13:55:35;;;;;;;7.07;1.20;;;3.00;99.90;;;;;;5058022;28;20228;-95
2022/01/08 13:58:09;;;;;;;5.33;0.70;;;3.00;99.90;;;;;;5057262;28;20204;-95